Time;durP1;ratioP1;P1;durP2;ratioP2;P2;SDS_P1;SDS_P2;PMS_P1;PMS_P2;Temp;Humidity;BMP_temperature;BMP_pressure;BME280_temperature;BME280_humidity;BME280_pressure;Samples;Min_cycle;Max_cycle;Signal;HPM_P1;HPM_P2
2023/11/22 00:01:53;;;;;;;2.97;2.42;;;;;;;21.01;43.89;102889.31;5062283;28;20040;-73
2023/11/22 00:04:18;;;;;;;3.13;2.83;;;;;;;21.04;44.02;102891.69;4995982;28;20037;-73
2023/11/22 00:10:51;;;;;;;3.05;2.75;;;;;;;20.88;43.83;102878.16;5011245;28;21035;-73
2023/11/22 00:13:49;;;;;;;2.65;2.45;;;;;;;21.00;43.85;102900.03;4997640;28;21234;-72
2023/11/22 00:16:14;;;;;;;3.53;2.88;;;;;;;21.02;44.19;102904.25;5046795;28;20053;-72
2023/11/22 00:18:40;;;;;;;3.50;2.78;;;;;;;21.02;43.96;102903.41;5020886;28;20044;-73
2023/11/22 00:21:06;;;;;;;2.90;2.58;;;;;;;20.90;44.03;102883.31;5042281;28;20058;-73
2023/11/22 00:23:32;;;;;;;3.47;2.60;;;;;;;21.00;44.13;102898.22;5034429;28;20040;-73
2023/11/22 00:25:58;;;;;;;3.72;2.90;;;;;;;21.02;43.81;102900.75;5041636;28;20437;-73
2023/11/22 00:32:19;;;;;;;3.10;2.67;;;;;;;20.97;43.95;102902.94;5056433;28;20047;-73
2023/11/22 00:34:44;;;;;;;3.53;2.58;;;;;;;20.99;43.90;102919.53;4989674;28;20040;-73
2023/11/22 00:41:10;;;;;;;4.38;2.70;;;;;;;20.99;43.98;102919.53;5013979;28;20071;-73
2023/11/22 00:44:07;;;;;;;3.15;2.55;;;;;;;20.95;44.11;102912.84;5065538;28;20676;-74
2023/11/22 00:46:33;;;;;;;3.67;2.75;;;;;;;20.95;43.84;102912.84;5045853;28;20044;-73
2023/11/22 00:48:58;;;;;;;3.13;2.80;;;;;;;20.99;43.97;102916.88;4974000;28;20037;-73
2023/11/22 00:51:24;;;;;;;3.20;2.53;;;;;;;20.86;44.05;102913.69;5049220;28;20509;-73
2023/11/22 00:53:50;;;;;;;3.55;2.58;;;;;;;20.92;43.75;102926.38;5007393;28;20063;-73
2023/11/22 00:56:16;;;;;;;3.20;2.53;;;;;;;20.85;43.86;102912.84;5051157;28;20036;-73
2023/11/22 00:58:42;;;;;;;3.00;2.58;;;;;;;20.86;43.95;102924.28;5007004;28;20074;-74
2023/11/22 01:01:07;;;;;;;2.63;2.35;;;;;;;20.91;44.01;102938.78;5041128;28;20067;-73
2023/11/22 01:11:21;;;;;;;3.25;2.75;;;;;;;20.93;44.02;102958.00;5058613;28;20079;-73
2023/11/22 01:13:46;;;;;;;2.90;2.47;;;;;;;20.93;44.02;102957.19;4992421;28;20040;-73
2023/11/22 01:16:15;;;;;;;2.95;2.60;;;;;;;20.89;43.95;102969.84;5040833;28;20052;-73
2023/11/22 01:18:41;;;;;;;3.35;2.67;;;;;;;20.85;43.80;102972.91;5010495;28;20162;-73
2023/11/22 01:21:08;;;;;;;2.83;2.30;;;;;;;20.87;43.91;102971.81;5057902;28;20131;-73
2023/11/22 01:23:33;;;;;;;3.25;2.83;;;;;;;20.83;43.70;102972.22;5011922;28;20399;-73
2023/11/22 01:25:59;;;;;;;2.92;2.55;;;;;;;20.86;43.72;102977.25;5058752;28;20028;-74
2023/11/22 01:28:33;;;;;;;2.63;2.40;;;;;;;20.84;43.86;102964.13;5010730;28;20516;-73
2023/11/22 01:31:01;;;;;;;3.63;2.55;;;;;;;20.87;43.77;102955.91;5050562;28;20056;-73
2023/11/22 01:33:27;;;;;;;2.47;2.22;;;;;;;20.89;43.73;102950.47;5015190;28;20051;-73
2023/11/22 01:35:52;;;;;;;3.15;2.38;;;;;;;20.85;43.95;102944.63;5048377;28;20379;-73
2023/11/22 01:38:18;;;;;;;2.83;2.40;;;;;;;20.87;43.85;102947.97;5019730;28;20501;-73
2023/11/22 01:40:47;;;;;;;3.33;2.60;;;;;;;20.84;43.96;102931.53;5067533;28;20070;-74
2023/11/22 01:43:26;;;;;;;3.17;2.40;;;;;;;20.83;43.70;102928.03;4993248;28;20044;-74
2023/11/22 01:45:52;;;;;;;2.63;2.33;;;;;;;20.79;43.83;102932.75;5050405;28;20033;-73
2023/11/22 01:48:17;;;;;;;2.67;2.38;;;;;;;20.85;43.76;102947.28;4994076;28;22164;-73
2023/11/22 01:50:43;;;;;;;3.00;2.60;;;;;;;20.77;43.92;102933.84;5047319;28;20620;-74
2023/11/22 01:53:12;;;;;;;4.13;2.63;;;;;;;20.82;43.70;102950.16;5021692;28;20048;-73
2023/11/22 01:55:39;;;;;;;2.50;2.30;;;;;;;20.79;43.68;102953.09;5036374;28;20505;-73
2023/11/22 01:58:06;;;;;;;2.85;2.40;;;;;;;20.84;43.54;102964.13;5055545;28;20032;-73
2023/11/22 02:00:38;;;;;;;3.17;2.67;;;;;;;20.81;43.72;102956.44;5030415;28;20043;-73
2023/11/22 02:03:04;;;;;;;3.28;2.40;;;;;;;20.83;43.69;102962.47;5055634;28;20035;-73
2023/11/22 02:09:52;;;;;;;3.75;2.50;;;;;;;20.81;43.78;102959.91;5012595;28;20065;-73
2023/11/22 02:12:51;;;;;;;3.17;2.80;;;;;;;20.80;43.58;102960.06;5062538;28;20039;-73
2023/11/22 02:15:16;;;;;;;3.10;2.75;;;;;;;20.79;43.70;102963.69;4992396;28;20044;-72
2023/11/22 02:17:42;;;;;;;2.83;2.40;;;;;;;20.78;43.83;102962.00;5028878;28;20044;-73
2023/11/22 02:20:10;;;;;;;3.58;2.65;;;;;;;20.79;43.83;102964.50;5012088;28;20043;-73
2023/11/22 02:22:47;;;;;;;3.28;2.60;;;;;;;20.76;43.77;102951.56;5060720;28;20028;-73
2023/11/22 02:25:13;;;;;;;3.30;2.60;;;;;;;20.76;43.68;102951.56;4997017;28;20124;-74
2023/11/22 02:27:39;;;;;;;2.80;2.42;;;;;;;20.74;43.72;102950.00;5040063;28;20158;-73
2023/11/22 02:34:46;;;;;;;3.42;2.53;;;;;;;20.75;43.73;102964.94;5009442;28;20144;-73
2023/11/22 02:37:45;;;;;;;2.83;2.53;;;;;;;20.75;43.47;102963.13;5063374;28;20042;-73
2023/11/22 02:40:19;;;;;;;2.53;2.20;;;;;;;20.68;43.59;102943.47;5016984;28;20052;-73
2023/11/22 02:42:48;;;;;;;3.17;2.40;;;;;;;20.67;43.65;102930.34;5049650;28;20040;-74
2023/11/22 02:45:16;;;;;;;3.15;2.45;;;;;;;20.72;43.54;102936.91;4986116;28;20467;-73
2023/11/22 02:47:44;;;;;;;2.38;2.17;;;;;;;20.73;43.51;102943.88;5056297;28;20048;-73
2023/11/22 02:50:11;;;;;;;3.03;2.47;;;;;;;20.73;43.67;102941.22;5044546;28;20037;-73
2023/11/22 02:52:37;;;;;;;4.13;2.60;;;;;;;20.73;43.52;102943.88;5061451;28;20466;-73
2023/11/22 02:55:04;;;;;;;2.95;2.40;;;;;;;20.66;43.69;102940.09;5012513;28;20040;-73
2023/11/22 02:57:31;;;;;;;2.65;2.30;;;;;;;20.69;43.78;102945.13;5038429;28;20031;-74
2023/11/22 02:59:57;;;;;;;2.55;2.15;;;;;;;20.64;43.69;102944.66;5011169;28;20512;-73
2023/11/22 03:02:23;;;;;;;3.03;2.33;;;;;;;20.70;43.67;102961.84;5073216;28;20036;-73
2023/11/22 03:04:50;;;;;;;2.20;2.00;;;;;;;20.64;43.54;102962.38;4998124;28;20036;-73
2023/11/22 03:07:15;;;;;;;2.90;2.50;;;;;;;20.69;43.55;102965.47;5053241;28;20041;-74
2023/11/22 03:09:44;;;;;;;2.50;2.30;;;;;;;20.68;43.51;102969.94;5009114;28;20032;-73
2023/11/22 03:25:50;;;;;;;2.90;2.58;;;;;;;20.67;43.66;103001.84;5065659;28;20066;-73
2023/11/22 03:28:16;;;;;;;3.25;2.60;;;;;;;20.66;43.51;103026.63;5049789;28;20488;-73
2023/11/22 03:30:41;;;;;;;2.90;2.33;;;;;;;20.63;43.46;103026.88;5070200;28;20032;-73
2023/11/22 03:33:08;;;;;;;2.30;2.10;;;;;;;20.63;43.40;103027.72;4994172;28;20041;-73
2023/11/22 03:35:33;;;;;;;2.75;2.45;;;;;;;20.66;43.19;103031.94;5064451;28;20059;-73
2023/11/22 03:37:59;;;;;;;2.67;2.30;;;;;;;20.61;43.56;103024.34;5014863;28;20044;-73
2023/11/22 03:40:24;;;;;;;2.78;2.42;;;;;;;20.58;43.38;103019.34;5065110;28;20062;-73
2023/11/22 03:42:50;;;;;;;3.05;2.50;;;;;;;20.62;43.66;103027.84;5015354;28;20463;-73
2023/11/22 03:45:15;;;;;;;3.10;2.53;;;;;;;20.61;43.37;103029.66;5061907;28;20079;-73
2023/11/22 03:47:41;;;;;;;2.53;2.17;;;;;;;20.62;43.69;103023.38;4994796;28;20040;-73
2023/11/22 03:50:07;;;;;;;2.63;2.38;;;;;;;20.61;43.63;103019.06;5056708;28;20043;-73
2023/11/22 03:52:32;;;;;;;2.53;2.20;;;;;;;20.53;43.54;103005.66;5004822;28;20033;-73
2023/11/22 03:54:58;;;;;;;4.10;2.40;;;;;;;20.60;43.44;103012.09;5063766;28;20075;-73
2023/11/22 03:57:23;;;;;;;2.50;2.30;;;;;;;20.56;43.49;103013.34;5011145;28;20043;-73
2023/11/22 03:59:49;;;;;;;2.72;2.15;;;;;;;20.58;43.33;103008.75;5061884;28;20036;-73
2023/11/22 04:02:14;;;;;;;3.42;2.50;;;;;;;20.59;43.58;103012.22;5008541;28;20045;-73
2023/11/22 04:04:41;;;;;;;2.60;2.08;;;;;;;20.58;43.01;103014.03;5055124;28;20048;-73
2023/11/22 04:07:07;;;;;;;3.15;2.20;;;;;;;20.57;43.64;103008.88;5008154;28;20048;-73
2023/11/22 04:09:33;;;;;;;2.83;2.28;;;;;;;20.53;43.53;103008.31;5049261;28;20032;-73
2023/11/22 04:11:58;;;;;;;2.45;2.17;;;;;;;20.49;43.40;103002.44;5005766;28;20064;-74
2023/11/22 04:14:24;;;;;;;3.47;2.65;;;;;;;20.56;43.61;103012.50;5066320;28;20050;-73
2023/11/22 04:16:50;;;;;;;2.65;2.15;;;;;;;20.35;43.49;102971.00;5005152;28;20072;-73
2023/11/22 04:19:16;;;;;;;2.88;2.33;;;;;;;20.56;43.58;103012.50;5065326;28;20055;-73
2023/11/22 04:21:41;;;;;;;2.38;2.17;;;;;;;20.55;43.30;103011.66;5009683;28;26490;-73
2023/11/22 04:24:07;;;;;;;2.40;2.20;;;;;;;20.55;43.26;103014.31;5069690;28;20036;-73
2023/11/22 04:26:33;;;;;;;2.63;2.30;;;;;;;20.55;43.50;103005.53;5003137;28;20741;-72
2023/11/22 04:28:59;;;;;;;2.72;2.20;;;;;;;20.55;43.34;103011.66;5063315;28;20067;-73
2023/11/22 04:31:24;;;;;;;2.60;2.35;;;;;;;20.54;43.50;103009.16;5007950;28;20478;-73
2023/11/22 04:33:50;;;;;;;2.65;2.13;;;;;;;20.38;43.33;102983.97;5043760;28;20549;-73
2023/11/22 04:36:16;;;;;;;3.00;2.17;;;;;;;20.53;43.45;103013.59;5059242;28;20059;-73
2023/11/22 04:38:42;;;;;;;3.10;2.40;;;;;;;20.48;43.40;103000.78;4986957;28;20916;-73
2023/11/22 04:41:07;;;;;;;2.53;2.28;;;;;;;20.47;43.30;103000.91;5048082;28;20123;-73
2023/11/22 04:43:33;;;;;;;2.25;2.00;;;;;;;20.51;43.30;103016.38;4995196;28;21653;-73
2023/11/22 04:45:58;;;;;;;2.30;2.00;;;;;;;20.48;43.41;103007.88;5060575;28;20036;-73
2023/11/22 04:48:24;;;;;;;2.63;2.22;;;;;;;20.48;43.26;103005.22;5019584;28;20117;-73
2023/11/22 04:50:50;;;;;;;2.55;2.20;;;;;;;20.50;43.45;103017.34;5047800;28;20036;-73
2023/11/22 04:53:16;;;;;;;2.60;2.40;;;;;;;20.48;43.58;103016.66;5041576;28;20048;-73
2023/11/22 04:55:42;;;;;;;2.92;2.20;;;;;;;20.49;43.32;103020.13;5031907;28;20040;-73
2023/11/22 04:58:07;;;;;;;2.20;2.00;;;;;;;20.47;43.38;103024.72;5068001;28;20052;-73
2023/11/22 05:00:33;;;;;;;2.40;2.20;;;;;;;20.44;43.40;103025.81;5004119;28;20040;-73
2023/11/22 05:02:58;;;;;;;3.25;2.10;;;;;;;20.48;43.43;103034.34;5045603;28;20051;-73
2023/11/22 05:05:24;;;;;;;2.38;2.08;;;;;;;20.50;43.21;103029.75;4994998;28;20036;-73
2023/11/22 05:07:49;;;;;;;3.08;2.58;;;;;;;20.42;43.39;103029.56;5062474;28;20583;-73
2023/11/22 05:10:16;;;;;;;2.72;2.30;;;;;;;20.48;43.39;103035.19;5009491;28;20032;-73
2023/11/22 05:12:43;;;;;;;2.38;2.08;;;;;;;20.45;43.31;103022.19;5046934;28;20846;-73
2023/11/22 05:15:09;;;;;;;2.22;2.03;;;;;;;20.43;43.39;103020.63;5000607;28;20325;-73
2023/11/22 05:17:35;;;;;;;2.55;2.28;;;;;;;20.38;43.34;102999.00;5057787;28;20450;-73
2023/11/22 05:20:02;;;;;;;2.28;2.08;;;;;;;20.39;43.23;103016.56;5009173;28;20075;-74
2023/11/22 05:22:27;;;;;;;2.28;2.08;;;;;;;20.47;43.48;103030.84;5062662;28;20036;-73
2023/11/22 05:24:53;;;;;;;2.65;2.08;;;;;;;20.45;43.38;103019.53;4993068;28;20829;-73
2023/11/22 05:27:18;;;;;;;2.55;2.10;;;;;;;20.45;43.42;103031.94;5061663;28;20483;-73
2023/11/22 05:29:44;;;;;;;2.65;2.40;;;;;;;20.38;43.34;103009.59;5009942;28;20044;-73
2023/11/22 05:32:09;;;;;;;2.95;2.47;;;;;;;20.45;43.43;103016.88;5070101;28;20040;-73
2023/11/22 05:34:35;;;;;;;2.30;2.08;;;;;;;20.42;43.25;103017.16;5001888;28;20051;-73
2023/11/22 05:37:00;;;;;;;3.40;2.30;;;;;;;20.44;43.49;103030.25;5049479;28;20063;-73
2023/11/22 05:39:26;;;;;;;2.95;2.17;;;;;;;20.24;43.55;103005.47;5018375;28;20062;-73
2023/11/22 05:41:53;;;;;;;3.40;2.15;;;;;;;20.40;43.55;103037.59;5047336;28;20048;-73
2023/11/22 05:44:19;;;;;;;2.65;2.10;;;;;;;20.41;43.74;103036.66;5064697;28;20063;-73
2023/11/22 05:46:44;;;;;;;2.70;2.20;;;;;;;20.42;43.62;103037.50;5022979;28;20552;-73
2023/11/22 05:49:10;;;;;;;3.47;2.17;;;;;;;20.19;43.53;102997.91;5037825;28;20037;-73
2023/11/22 05:51:37;;;;;;;2.35;2.15;;;;;;;20.33;43.66;103020.56;5048892;28;20048;-73
2023/11/22 05:54:03;;;;;;;2.35;2.00;;;;;;;20.44;43.61;103030.25;5028520;28;20035;-73
2023/11/22 05:56:29;;;;;;;2.25;1.92;;;;;;;20.43;43.59;103031.22;5065327;28;20029;-73
2023/11/22 05:58:54;;;;;;;2.28;2.08;;;;;;;20.39;43.69;103030.63;5019291;28;20438;-73
2023/11/22 06:05:14;;;;;;;2.53;2.10;;;;;;;20.40;43.51;103024.34;5060639;28;20154;-73
2023/11/22 06:08:12;;;;;;;2.90;2.50;;;;;;;20.34;43.77;103009.00;5014174;28;20055;-73
2023/11/22 06:10:41;;;;;;;2.35;1.90;;;;;;;20.32;43.70;103021.53;5062032;28;20036;-73
2023/11/22 06:13:06;;;;;;;2.17;1.80;;;;;;;20.43;43.69;103047.09;5001628;28;20505;-73
2023/11/22 06:15:32;;;;;;;2.67;2.20;;;;;;;20.41;43.71;103044.59;5068337;28;20474;-73
2023/11/22 06:17:58;;;;;;;2.90;2.13;;;;;;;20.41;43.67;103041.94;5000998;28;20041;-72
2023/11/22 06:20:26;;;;;;;2.28;2.00;;;;;;;20.34;43.65;103037.28;5050267;28;20052;-73
2023/11/22 06:22:51;;;;;;;2.65;1.95;;;;;;;20.41;43.68;103063.13;5020952;28;20028;-72
2023/11/22 06:25:17;;;;;;;2.50;1.95;;;;;;;20.34;43.73;103048.72;5063728;28;20064;-72
2023/11/22 06:27:42;;;;;;;2.22;1.90;;;;;;;20.38;43.77;103057.22;5012878;28;20048;-73
2023/11/22 06:30:11;;;;;;;2.13;1.90;;;;;;;20.42;43.53;103075.38;5043876;28;20055;-73
2023/11/22 06:32:37;;;;;;;2.30;2.10;;;;;;;20.41;43.70;103068.41;4992426;28;20067;-73
2023/11/22 06:35:03;;;;;;;1.95;1.75;;;;;;;20.41;43.65;103065.75;5062039;28;20413;-74
2023/11/22 06:37:28;;;;;;;2.22;2.03;;;;;;;20.44;43.73;103067.31;5011676;28;20036;-74
2023/11/22 06:39:54;;;;;;;2.15;1.77;;;;;;;20.40;43.75;103065.88;5059773;28;20508;-74
2023/11/22 06:42:19;;;;;;;2.70;2.00;;;;;;;20.42;43.84;103070.09;4990489;28;20131;-74
2023/11/22 06:44:47;;;;;;;1.90;1.80;;;;;;;20.39;43.92;103066.84;5074115;28;20485;-74
2023/11/22 06:47:13;;;;;;;2.55;2.20;;;;;;;20.38;43.52;103058.06;5010627;28;20059;-73
2023/11/22 06:49:39;;;;;;;2.30;1.90;;;;;;;20.39;43.61;103062.38;5077859;28;20039;-73
2023/11/22 06:52:04;;;;;;;2.05;1.95;;;;;;;20.41;43.69;103064.94;5028017;28;20039;-74
2023/11/22 06:54:31;;;;;;;1.98;1.67;;;;;;;20.41;43.83;103067.56;5061583;28;20760;-73
2023/11/22 06:56:57;;;;;;;2.17;2.00;;;;;;;20.40;43.79;103055.28;5009782;28;20052;-74
2023/11/22 06:59:22;;;;;;;2.47;2.15;;;;;;;20.40;43.75;103058.75;5062827;28;20070;-74
2023/11/22 07:01:48;;;;;;;2.65;2.17;;;;;;;20.41;43.65;103060.47;5009313;28;20040;-73
2023/11/22 07:04:14;;;;;;;2.53;2.20;;;;;;;20.41;43.77;103052.53;5046953;28;20045;-73
2023/11/22 07:06:39;;;;;;;3.00;2.08;;;;;;;20.38;43.69;103047.47;5004342;28;20047;-74
2023/11/22 07:09:05;;;;;;;2.90;2.08;;;;;;;20.40;43.79;103040.25;5065342;28;20643;-74
2023/11/22 07:11:31;;;;;;;2.22;1.90;;;;;;;20.41;43.70;103041.94;5010012;28;20094;-74
2023/11/22 07:13:57;;;;;;;2.63;2.15;;;;;;;20.40;43.71;103034.09;5058167;28;20037;-74
2023/11/22 07:16:24;;;;;;;2.58;2.00;;;;;;;20.40;43.77;103037.59;5008809;28;20050;-74
2023/11/22 07:18:50;;;;;;;2.40;1.92;;;;;;;20.35;43.64;103034.50;5064314;28;20045;-74
2023/11/22 07:21:16;;;;;;;2.10;1.90;;;;;;;20.41;43.70;103049.03;5004093;28;20678;-73
2023/11/22 07:23:42;;;;;;;2.00;1.80;;;;;;;20.40;43.75;103047.34;5059989;28;20050;-74
2023/11/22 07:26:08;;;;;;;2.47;2.17;;;;;;;20.36;43.79;103044.13;5011843;28;22274;-74
2023/11/22 07:28:35;;;;;;;2.60;1.80;;;;;;;20.40;43.75;103048.19;5069503;28;20052;-74
2023/11/22 07:31:02;;;;;;;2.70;2.20;;;;;;;20.40;43.66;103042.88;5010333;28;20905;-73
2023/11/22 07:33:27;;;;;;;2.20;2.00;;;;;;;20.37;43.73;103034.38;5062718;28;20060;-73
2023/11/22 07:35:53;;;;;;;2.67;2.13;;;;;;;20.41;43.68;103041.09;5002085;28;20079;-74
2023/11/22 07:38:19;;;;;;;1.90;1.70;;;;;;;20.41;43.70;103036.66;5058861;28;20067;-74
2023/11/22 07:40:45;;;;;;;2.00;1.80;;;;;;;20.38;43.83;103031.59;5042632;28;20041;-74
2023/11/22 07:43:11;;;;;;;2.25;2.03;;;;;;;20.42;43.72;103040.13;5038232;28;20032;-74
2023/11/22 07:45:37;;;;;;;2.15;1.90;;;;;;;20.33;43.54;103028.50;5053573;28;20044;-74
2023/11/22 07:48:04;;;;;;;2.15;1.92;;;;;;;20.50;43.61;103041.19;4995730;28;20398;-74
2023/11/22 07:50:29;;;;;;;2.72;2.15;;;;;;;20.96;42.56;103049.59;5051814;28;20047;-73
2023/11/22 07:52:56;;;;;;;2.00;1.80;;;;;;;21.32;41.97;103050.84;5028160;28;20072;-74
2023/11/22 07:55:22;;;;;;;2.45;2.10;;;;;;;21.65;41.14;103084.97;5062097;28;20119;-74
2023/11/22 07:57:55;;;;;;;2.70;2.15;;;;;;;21.75;41.04;103092.94;5011266;28;20043;-73
2023/11/22 08:00:22;;;;;;;2.70;2.00;;;;;;;21.75;41.33;103097.41;5039301;28;20349;-73
2023/11/22 08:02:49;;;;;;;2.42;2.10;;;;;;;21.68;41.04;103105.06;5044892;28;20127;-74
2023/11/22 08:05:17;;;;;;;2.28;1.95;;;;;;;21.55;41.45;103113.28;5044032;28;20063;-74
2023/11/22 08:07:45;;;;;;;2.55;2.03;;;;;;;21.47;41.72;103094.56;5006049;28;21233;-74
2023/11/22 08:10:18;;;;;;;2.53;1.98;;;;;;;21.28;41.71;103060.91;5062595;28;20032;-74
2023/11/22 08:12:46;;;;;;;2.20;2.00;;;;;;;21.40;41.86;103098.75;4981931;28;20461;-74
2023/11/22 08:15:13;;;;;;;2.33;1.98;;;;;;;21.33;42.05;103084.34;5058441;28;20064;-73
2023/11/22 08:17:39;;;;;;;2.17;1.70;;;;;;;21.29;42.23;103065.22;5012598;28;20057;-73
2023/11/22 08:20:06;;;;;;;2.00;1.85;;;;;;;21.21;42.54;103078.28;5062689;28;20080;-74
2023/11/22 08:22:35;;;;;;;2.35;1.98;;;;;;;21.17;42.54;103094.56;5007261;28;20090;-74
2023/11/22 08:25:04;;;;;;;2.70;2.17;;;;;;;21.08;42.43;103089.13;5063394;28;20060;-74
2023/11/22 08:27:31;;;;;;;2.90;2.10;;;;;;;21.10;42.34;103099.56;5010814;28;20481;-74
2023/11/22 08:29:57;;;;;;;2.67;2.13;;;;;;;20.92;42.73;103083.47;5061772;28;20626;-74
2023/11/22 08:32:27;;;;;;;3.15;2.30;;;;;;;21.03;42.66;103115.19;5014297;28;20051;-74
2023/11/22 08:34:53;;;;;;;2.22;1.98;;;;;;;21.01;42.71;103103.03;5059405;28;20047;-75
2023/11/22 08:37:18;;;;;;;2.40;1.90;;;;;;;20.97;42.76;103091.84;5009062;28;20033;-75
2023/11/22 08:39:44;;;;;;;2.67;1.95;;;;;;;20.96;43.15;103084.03;5048698;28;20555;-74
2023/11/22 08:42:09;;;;;;;2.78;2.17;;;;;;;20.92;42.98;103079.97;5008957;28;20041;-74
2023/11/22 08:44:36;;;;;;;2.60;2.00;;;;;;;20.92;42.86;103070.22;5059435;28;20057;-74
2023/11/22 08:47:05;;;;;;;2.25;1.77;;;;;;;20.83;43.04;103062.25;5010244;28;20040;-74
2023/11/22 08:49:30;;;;;;;3.10;1.83;;;;;;;20.87;43.00;103085.69;5054818;28;20385;-74
2023/11/22 08:51:59;;;;;;;3.47;2.20;;;;;;;20.83;43.11;103083.44;5009121;28;20100;-73
2023/11/22 08:54:28;;;;;;;2.58;2.10;;;;;;;20.85;43.17;103090.28;5055742;28;20063;-74
2023/11/22 08:56:57;;;;;;;2.28;2.08;;;;;;;20.78;43.04;103081.16;5012709;28;20617;-74
2023/11/22 08:59:23;;;;;;;2.50;2.00;;;;;;;20.83;43.11;103086.91;5058386;28;20037;-74
2023/11/22 09:01:48;;;;;;;2.72;2.38;;;;;;;20.83;43.03;103091.38;5010259;28;20040;-74
2023/11/22 09:04:15;;;;;;;2.28;2.05;;;;;;;20.81;43.23;103089.66;5062188;28;20033;-74
2023/11/22 09:06:40;;;;;;;2.30;2.10;;;;;;;20.74;42.95;103077.94;4987330;28;20758;-73
2023/11/22 09:09:06;;;;;;;2.75;2.10;;;;;;;20.60;43.18;103051.81;5065946;28;20094;-74
2023/11/22 09:11:34;;;;;;;2.30;2.10;;;;;;;20.74;43.05;103070.00;5013587;28;20048;-74
2023/11/22 09:14:05;;;;;;;2.47;2.10;;;;;;;20.78;43.15;103076.69;5058462;28;20032;-73
2023/11/22 09:16:54;;;;;;;2.10;1.90;;;;;;;20.80;43.11;103079.22;4993674;28;20044;-73
2023/11/22 09:19:21;;;;;;;2.25;1.83;;;;;;;20.51;42.97;103032.25;5044501;28;20060;-73
2023/11/22 09:21:46;;;;;;;2.47;1.98;;;;;;;20.79;42.91;103070.44;5007973;28;21360;-73
2023/11/22 09:24:12;;;;;;;2.50;2.22;;;;;;;20.78;42.99;103071.41;5057508;28;20029;-73
2023/11/22 09:26:38;;;;;;;2.45;2.20;;;;;;;20.74;43.13;103064.69;5009022;28;22032;-73
2023/11/22 09:29:04;;;;;;;2.83;2.08;;;;;;;20.77;43.05;103066.25;5064400;28;20127;-73
2023/11/22 09:31:30;;;;;;;3.00;2.20;;;;;;;20.71;42.96;103054.38;4992884;28;20036;-73
2023/11/22 09:34:00;;;;;;;2.47;1.88;;;;;;;20.72;43.11;103058.72;5021158;28;20494;-73
2023/11/22 09:36:28;;;;;;;2.38;2.03;;;;;;;20.76;43.13;103077.81;5019890;28;20089;-72
2023/11/22 09:38:53;;;;;;;2.35;2.03;;;;;;;20.73;42.94;103078.06;5046432;28;20032;-73
2023/11/22 09:41:21;;;;;;;2.92;1.98;;;;;;;20.66;43.07;103074.28;5043115;28;20091;-72
2023/11/22 09:43:49;;;;;;;2.38;2.00;;;;;;;20.69;42.96;103068.72;5015464;28;20033;-73
2023/11/22 09:46:19;;;;;;;2.50;2.10;;;;;;;20.74;43.01;103077.94;5048104;28;20062;-72
2023/11/22 09:48:49;;;;;;;;;;;;;;;20.73;43.08;103070.13;5029323;28;20173;-73
2023/11/22 09:51:24;;;;;;;3.00;2.38;;;;;;;20.70;43.02;103065.94;5064547;28;19923;-73
2023/11/22 09:53:59;;;;;;;3.42;2.10;;;;;;;20.74;42.93;103066.50;5043369;28;20151;-73
2023/11/22 09:56:27;;;;;;;3.28;2.13;;;;;;;20.74;42.95;103061.22;5036426;28;20761;-73
2023/11/22 09:58:55;;;;;;;2.67;2.28;;;;;;;20.72;42.97;103053.41;5053682;28;20094;-74
2023/11/22 10:01:22;;;;;;;2.13;1.80;;;;;;;20.74;42.77;103053.28;5046781;28;20525;-74
2023/11/22 10:03:49;;;;;;;1.77;1.60;;;;;;;20.71;42.90;103043.78;5017966;28;20139;-73
2023/11/22 10:06:15;;;;;;;2.40;1.83;;;;;;;20.75;42.78;103061.09;5055270;28;20068;-74
2023/11/22 10:08:41;;;;;;;2.13;1.92;;;;;;;20.74;42.93;103047.97;5015863;28;20089;-74
2023/11/22 10:11:07;;;;;;;2.38;2.17;;;;;;;20.64;42.97;103018.78;5065199;28;20052;-74
2023/11/22 10:13:34;;;;;;;2.25;2.05;;;;;;;20.74;43.09;103040.03;4986630;28;20045;-74
2023/11/22 10:16:12;;;;;;;2.38;2.03;;;;;;;20.84;42.87;103043.56;5068645;28;20044;-74
2023/11/22 10:18:46;;;;;;;2.03;1.83;;;;;;;21.18;41.86;103046.75;5022858;28;20472;-74
2023/11/22 10:21:24;;;;;;;2.20;2.00;;;;;;;21.70;41.34;103053.56;5062008;28;20051;-74
2023/11/22 10:23:53;;;;;;;2.70;2.05;;;;;;;21.60;41.12;103039.47;5014281;28;20036;-74
2023/11/22 10:26:19;;;;;;;2.38;1.90;;;;;;;21.61;41.28;103045.63;5060212;28;20513;-74
2023/11/22 10:28:44;;;;;;;2.33;1.95;;;;;;;21.69;41.21;103064.31;5017381;28;22337;-74
2023/11/22 10:31:10;;;;;;;2.22;1.75;;;;;;;21.57;41.44;103066.28;5057969;28;20494;-74
2023/11/22 10:33:43;;;;;;;2.88;2.13;;;;;;;21.50;41.48;103066.94;5013540;28;20043;-73
2023/11/22 10:36:09;;;;;;;2.92;2.00;;;;;;;21.25;41.57;103032.03;5059058;28;20032;-73
2023/11/22 10:38:38;;;;;;;3.47;2.30;;;;;;;21.34;41.85;103070.94;5019238;28;20028;-73
2023/11/22 10:41:08;;;;;;;2.60;1.97;;;;;;;21.31;42.02;103065.91;5064967;28;20032;-74
2023/11/22 10:43:37;;;;;;;2.35;1.98;;;;;;;21.24;42.06;103046.25;5032971;28;20036;-74
2023/11/22 10:46:09;;;;;;;2.60;2.05;;;;;;;21.24;42.30;103018.88;5039700;28;20040;-74
2023/11/22 10:48:36;;;;;;;2.10;1.90;;;;;;;21.20;42.27;103005.06;5028318;28;20048;-74
2023/11/22 10:51:04;;;;;;;2.95;2.40;;;;;;;21.18;42.06;102983.16;5057088;28;20067;-74
2023/11/22 10:53:34;;;;;;;1.60;1.50;;;;;;;21.13;42.37;102962.38;5008097;28;20040;-74
2023/11/22 10:56:11;;;;;;;2.67;2.22;;;;;;;21.11;42.44;102955.53;5057140;28;20490;-74
2023/11/22 10:58:47;;;;;;;2.05;1.85;;;;;;;21.05;42.37;102929.59;5015956;28;20044;-74
2023/11/22 11:01:16;;;;;;;2.25;2.00;;;;;;;21.06;42.33;102924.16;5069088;28;20070;-73
2023/11/22 11:03:48;;;;;;;2.20;1.80;;;;;;;20.99;42.49;102915.06;5008667;28;20032;-74
2023/11/22 11:06:19;;;;;;;2.45;2.00;;;;;;;20.99;42.49;102915.06;5065335;28;20101;-74
2023/11/22 11:08:45;;;;;;;2.30;1.92;;;;;;;21.01;42.61;102910.50;5010501;28;20032;-73
2023/11/22 11:11:15;;;;;;;2.30;2.00;;;;;;;20.98;42.46;102897.50;5062235;28;20068;-73
2023/11/22 11:13:42;;;;;;;2.15;1.92;;;;;;;20.75;42.72;102857.22;5009391;28;20047;-73
2023/11/22 11:16:08;;;;;;;2.63;2.10;;;;;;;20.98;42.58;102900.16;5060987;28;20044;-73
2023/11/22 11:18:36;;;;;;;2.55;2.20;;;;;;;20.96;42.43;102902.13;5028192;28;20052;-73
2023/11/22 11:21:08;;;;;;;2.72;2.08;;;;;;;20.95;42.56;102899.59;5030921;28;20044;-73
2023/11/22 11:23:33;;;;;;;1.90;1.80;;;;;;;20.97;42.70;102914.38;5047071;28;20462;-72
2023/11/22 11:26:15;;;;;;;2.40;2.00;;;;;;;20.95;42.42;102910.19;5057279;28;20040;-73
2023/11/22 11:28:47;;;;;;;2.80;2.28;;;;;;;20.96;42.50;102902.13;5000863;28;20043;-73
2023/11/22 11:31:14;;;;;;;1.92;1.73;;;;;;;20.97;42.43;102889.72;5048666;28;20036;-73
2023/11/22 11:33:48;;;;;;;2.28;1.77;;;;;;;20.95;42.47;102878.41;5012046;28;20071;-72
2023/11/22 11:36:31;;;;;;;2.10;1.90;;;;;;;20.85;42.58;102865.19;5064918;28;20239;-73
2023/11/22 11:39:00;;;;;;;2.33;2.13;;;;;;;20.95;42.50;102897.78;5002664;28;20354;-72
2023/11/22 11:41:27;;;;;;;2.72;2.00;;;;;;;20.96;42.54;102896.81;5062690;28;20166;-71
2023/11/22 11:43:53;;;;;;;2.17;1.98;;;;;;;20.91;42.44;102872.56;5007616;28;20103;-70
2023/11/22 11:46:20;;;;;;;3.00;2.22;;;;;;;20.96;42.64;102874.78;5058004;28;20577;-71
2023/11/22 11:48:49;;;;;;;2.25;1.90;;;;;;;20.90;42.53;102867.41;5012563;28;20406;-71
2023/11/22 11:51:15;;;;;;;2.53;1.92;;;;;;;20.96;42.65;102866.84;5063528;28;20511;-70
2023/11/22 11:53:41;;;;;;;2.50;2.05;;;;;;;20.94;42.38;102871.44;5005225;28;20040;-73
2023/11/22 11:56:07;;;;;;;2.60;1.85;;;;;;;20.91;42.47;102883.16;5064561;28;20090;-73
2023/11/22 11:58:34;;;;;;;2.30;2.10;;;;;;;20.95;42.29;102876.59;4989171;28;20032;-73
2023/11/22 12:00:59;;;;;;;2.53;2.10;;;;;;;20.94;42.20;102866.16;5060171;28;20632;-73
2023/11/22 12:03:25;;;;;;;1.92;1.75;;;;;;;20.93;42.57;102881.22;5009797;28;20089;-73
2023/11/22 12:05:51;;;;;;;2.40;2.00;;;;;;;20.91;42.45;102875.22;5056133;28;20402;-73
2023/11/22 12:08:17;;;;;;;2.40;2.00;;;;;;;20.89;42.30;102866.56;5003444;28;20126;-73
2023/11/22 12:10:49;;;;;;;3.17;2.17;;;;;;;20.87;42.31;102855.28;5054295;28;20066;-72
2023/11/22 12:13:21;;;;;;;3.38;2.08;;;;;;;20.70;42.30;102808.31;5009639;28;20047;-73